Raven — WDI2989 — position and weather

sailwx.info

Track history (hours):
 
Tides and Currents Weather Stations Pressure Air Temp Water Temp Dewpoint Dewpoint Depression Visibility Wind Speed Wind Dir Waves Ship Positions

Raven

Owner: So. Cal. Ship Services, Long Beach, CA. More information available from US FCC via Universal Licensing System and Coast Guard Vessel Documentation Center.

Last reported at 2018-Jun-14 05:44 UTC. Time now 2018-Jun-20 22:33 UTC.
Position N 33°44' W 118°16'.

Length 23 m; draft 2 m.

Type: . MMSI: 367683830.

Date/timePositionNaut miles runAvg speedWind from/ knotsBaromVisibWave heightAir tempDewpointWater temp
2018-Jun-14 05:44N 33°44' W 118°16'1 5.8
2018-Jun-14 05:30N 33°43' W 118°16'4 8.4
2018-Jun-14 05:01N 33°46' W 118°12'2 3.6
2018-Jun-14 04:30N 33°44' W 118°13'3 5.3
2018-Jun-14 03:55N 33°44' W 118°16'1 1.1
2018-Jun-14 03:29N 33°44' W 118°16'3 5.2
2018-Jun-14 02:53N 33°44' W 118°13'2 6.0
2018-Jun-14 02:30N 33°46' W 118°12'0 0.0
2018-Jun-14 02:00N 33°46' W 118°12'2 3.6
2018-Jun-14 01:30N 33°44' W 118°12'2 3.1
2018-Jun-14 00:55N 33°46' W 118°12'0 0.0
2018-Jun-14 00:30N 33°46' W 118°12'0 0.0
2018-Jun-13 23:59N 33°46' W 118°12'1 1.9
2018-Jun-13 23:30N 33°45' W 118°11'2 3.3
2018-Jun-13 23:00N 33°44' W 118°12'2 3.6
2018-Jun-13 22:30N 33°46' W 118°12'2 3.8
2018-Jun-13 22:01N 33°44' W 118°12'3 6.8
2018-Jun-13 21:30N 33°44' W 118°16'4 8.2
2018-Jun-13 20:58N 33°45' W 118°11'2 3.5
2018-Jun-13 20:31N 33°44' W 118°12'3 6.4
2018-Jun-13 20:00N 33°44' W 118°16'1 2.4
2018-Jun-13 19:30N 33°43' W 118°16'3 5.1
2018-Jun-13 19:01N 33°44' W 118°13'2 3.9
2018-Jun-13 18:30N 33°46' W 118°12'2 3.9
2018-Jun-13 18:00N 33°44' W 118°11'2 3.8
2018-Jun-13 17:30N 33°46' W 118°12'0 0.0
2018-Jun-13 17:00N 33°46' W 118°12'0 0.0
2018-Jun-13 16:30N 33°46' W 118°12'2 4.0
2018-Jun-13 16:00N 33°44' W 118°12'2 3.5
2018-Jun-13 15:30N 33°45' W 118°11'1 1.8
2018-Jun-13 15:00N 33°46' W 118°12'0 0.0
2018-Jun-13 14:30N 33°46' W 118°12'1 1.6
2018-Jun-13 14:00N 33°45' W 118°11'5 9.3
2018-Jun-13 13:30N 33°43' W 118°16'1 0.1
2018-Jun-13 06:25N 33°44' W 118°16'3 8.5
2018-Jun-13 06:01N 33°43' W 118°12'5 9.3
2018-Jun-13 05:30N 33°40' W 118°08'612.3
2018-Jun-13 05:00N 33°46' W 118°12'0 0.0
2018-Jun-13 04:30N 33°46' W 118°12'0 0.0
2018-Jun-13 04:00N 33°46' W 118°12'3 4.8
2018-Jun-13 03:29N 33°43' W 118°11'4 7.7
2018-Jun-13 03:00N 33°40' W 118°08'612.2
2018-Jun-13 02:30N 33°46' W 118°12'0 0.1
2018-Jun-13 01:59N 33°46' W 118°12'0 0.1
2018-Jun-13 01:30N 33°46' W 118°12'0 0.0
2018-Jun-13 01:00N 33°46' W 118°12'4 8.4
2018-Jun-13 00:30N 33°43' W 118°15'3 5.6
2018-Jun-13 00:00N 33°44' W 118°12'1 2.1
2018-Jun-12 23:30N 33°43' W 118°11'4 7.6
2018-Jun-12 23:01N 33°40' W 118°08'611.9
2018-Jun-12 22:30N 33°46' W 118°12'4 4.4
2018-Jun-12 21:30N 33°43' W 118°16'1 0.9
2018-Jun-12 20:36N 33°44' W 118°16'1 6.2
2018-Jun-12 20:22N 33°43' W 118°16'411.4
2018-Jun-12 20:00N 33°44' W 118°11'2 2.9
2018-Jun-12 19:23N 33°46' W 118°12'0 0.0
2018-Jun-12 19:00N 33°46' W 118°12'0 0.0
2018-Jun-12 18:30N 33°46' W 118°12'0 0.0
2018-Jun-12 18:00N 33°46' W 118°12'0 0.0
2018-Jun-12 17:30N 33°46' W 118°12'0 0.0
2018-Jun-12 17:00N 33°46' W 118°12'0 0.0
2018-Jun-12 16:30N 33°46' W 118°12'0 0.0
2018-Jun-12 16:00N 33°46' W 118°12'0 0.0
2018-Jun-12 15:29N 33°46' W 118°12'0 0.0
2018-Jun-12 15:00N 33°46' W 118°12'0 0.0
2018-Jun-12 14:29N 33°46' W 118°12'0 0.1
2018-Jun-12 14:00N 33°46' W 118°12'4 8.7
2018-Jun-12 13:31N 33°43' W 118°16'1 0.2
2018-Jun-12 06:55N 33°44' W 118°16'2 5.6
2018-Jun-12 06:30N 33°43' W 118°14'3 5.9
2018-Jun-12 06:00N 33°45' W 118°11'510.2
2018-Jun-12 05:30N 33°40' W 118°08'612.8
2018-Jun-12 05:01N 33°46' W 118°12'0 0.0
2018-Jun-12 04:31N 33°46' W 118°12'0 0.0
2018-Jun-12 04:00N 33°46' W 118°12'1 2.6
2018-Jun-12 03:30N 33°45' W 118°11'510.7
2018-Jun-12 03:00N 33°40' W 118°08'713.2
2018-Jun-12 02:30N 33°46' W 118°12'0 0.0
2018-Jun-12 02:00N 33°46' W 118°12'0 0.0
2018-Jun-12 01:30N 33°46' W 118°12'0 0.0
2018-Jun-12 01:00N 33°46' W 118°12'0 0.0
2018-Jun-12 00:30N 33°46' W 118°12'2 4.0
2018-Jun-12 00:00N 33°44' W 118°11'3 5.7
2018-Jun-11 23:30N 33°41' W 118°09'1 2.3
2018-Jun-11 23:00N 33°41' W 118°08'612.3
2018-Jun-11 22:30N 33°46' W 118°12'3 6.2
2018-Jun-11 22:00N 33°43' W 118°14'2 4.6
2018-Jun-11 21:30N 33°44' W 118°16'0 0.0
2018-Jun-11 20:49N 33°44' W 118°16'0 1.3
2018-Jun-11 20:31N 33°44' W 118°16'3 5.7
2018-Jun-11 20:00N 33°43' W 118°13'2 4.9
2018-Jun-11 19:30N 33°45' W 118°11'2 3.3
2018-Jun-11 19:00N 33°44' W 118°12'2 3.6
2018-Jun-11 18:31N 33°46' W 118°12'0 0.0
2018-Jun-11 18:01N 33°46' W 118°12'2 3.6
2018-Jun-11 17:31N 33°44' W 118°12'2 3.6
2018-Jun-11 17:00N 33°46' W 118°12'0 0.0
2018-Jun-11 16:30N 33°46' W 118°12'0 0.0
2018-Jun-11 16:00N 33°46' W 118°12'0 0.2
2018-Jun-11 15:30N 33°46' W 118°12'2 3.7
2018-Jun-11 15:00N 33°44' W 118°12'2 3.7
2018-Jun-11 14:30N 33°46' W 118°12'0 0.0
2018-Jun-11 14:00N 33°46' W 118°12'3 5.3
2018-Jun-11 13:30N 33°43' W 118°13'3 0.4
2018-Jun-11 06:32N 33°44' W 118°16'0 0.5
2018-Jun-11 06:30N 33°44' W 118°16'5 8.9
2018-Jun-11 05:59N 33°45' W 118°11'1 2.2
2018-Jun-11 05:31N 33°44' W 118°12'2 3.5
2018-Jun-11 05:00N 33°46' W 118°12'0 0.0
2018-Jun-11 04:31N 33°46' W 118°12'0 0.0
2018-Jun-11 04:00N 33°46' W 118°12'0 0.0
2018-Jun-11 03:30N 33°46' W 118°12'1 2.6
2018-Jun-11 03:01N 33°45' W 118°11'1 0.4
2018-Jun-11 00:06N 33°46' W 118°12'0 0.1
2018-Jun-10 21:46N 33°45' W 118°12'4 6.4
2018-Jun-10 21:06N 33°44' W 118°16'0 0.1
2018-Jun-10 21:00N 33°44' W 118°16'1 2.0
2018-Jun-10 20:30N 33°43' W 118°16'4 8.8
2018-Jun-10 20:00N 33°46' W 118°12'2 3.5
2018-Jun-10 19:30N 33°44' W 118°12'0 0.1
2018-Jun-10 19:01N 33°44' W 118°12'2 3.5
2018-Jun-10 18:31N 33°46' W 118°12'0 0.0
2018-Jun-10 18:00N 33°46' W 118°12'2 4.3
2018-Jun-10 17:30N 33°44' W 118°12'4 7.1
2018-Jun-10 17:00N 33°44' W 118°16'0 0.0
2018-Jun-10 16:30N 33°44' W 118°16'5 9.4
2018-Jun-10 16:00N 33°44' W 118°11'1 2.0
2018-Jun-10 15:31N 33°44' W 118°12'1 1.1
2018-Jun-10 15:01N 33°44' W 118°12'2 1.7
2018-Jun-10 14:00N 33°45' W 118°12'4 9.0
2018-Jun-10 13:30N 33°43' W 118°16'1 0.1
2018-Jun-10 05:56N 33°44' W 118°16'4 1.7
2018-Jun-10 03:36N 33°46' W 118°12'0 0.0
2018-Jun-10 03:30N 33°46' W 118°12'2 0.9
2018-Jun-10 01:25N 33°44' W 118°12'0 0.1
2018-Jun-09 18:01N 33°44' W 118°11'011.0
2018-Jun-09 18:00N 33°44' W 118°12'0 0.5
2018-Jun-09 17:28N 33°44' W 118°12'1 1.8
2018-Jun-09 17:00N 33°44' W 118°11'2 3.6
2018-Jun-09 16:30N 33°46' W 118°12'4 7.4
2018-Jun-09 16:00N 33°43' W 118°14'2 3.9
2018-Jun-09 15:30N 33°44' W 118°16'0 0.0
2018-Jun-08 23:25N 33°44' W 118°16'3 7.9
2018-Jun-08 23:00N 33°44' W 118°12'2 4.1
2018-Jun-08 22:30N 33°46' W 118°12'0 0.1
2018-Jun-08 22:00N 33°46' W 118°12'0 0.0
2018-Jun-08 21:30N 33°46' W 118°12'0 0.0
2018-Jun-08 21:00N 33°46' W 118°12'0 0.0
2018-Jun-08 20:30N 33°46' W 118°12'0 0.0
2018-Jun-08 19:59N 33°46' W 118°12'2 3.6
2018-Jun-08 19:30N 33°44' W 118°11'1 2.5
2018-Jun-08 19:01N 33°45' W 118°11'1 1.0
2018-Jun-08 18:28N 33°46' W 118°12'0 0.0
2018-Jun-08 17:59N 33°46' W 118°12'0 0.0
2018-Jun-08 17:29N 33°46' W 118°12'0 0.2
2018-Jun-08 17:00N 33°46' W 118°12'4 8.6
2018-Jun-08 16:30N 33°43' W 118°15'2 3.0
2018-Jun-08 16:01N 33°44' W 118°16'3 6.5
2018-Jun-08 15:30N 33°44' W 118°12'0 0.0
2018-Jun-08 15:00N 33°44' W 118°12'2 3.9
2018-Jun-08 14:30N 33°46' W 118°12'4 8.7
2018-Jun-08 14:00N 33°43' W 118°16'1 2.3
2018-Jun-08 13:30N 33°44' W 118°16'0 0.0
2018-Jun-08 05:50N 33°44' W 118°16'3 8.3
2018-Jun-08 05:30N 33°43' W 118°13'3 5.3
2018-Jun-08 05:00N 33°46' W 118°12'0 0.3
2018-Jun-08 04:30N 33°46' W 118°12'0 0.0
2018-Jun-08 03:59N 33°46' W 118°12'0 0.0
2018-Jun-08 03:30N 33°46' W 118°12'0 0.0
2018-Jun-08 03:00N 33°46' W 118°12'0 0.0
2018-Jun-08 02:30N 33°46' W 118°12'0 0.0
2018-Jun-08 02:00N 33°46' W 118°12'2 3.8
2018-Jun-08 01:30N 33°44' W 118°12'2 3.6
2018-Jun-08 01:01N 33°46' W 118°12'0 0.4
2018-Jun-08 00:31N 33°46' W 118°12'0 0.0
2018-Jun-08 00:01N 33°46' W 118°12'0 0.0
2018-Jun-07 23:30N 33°46' W 118°12'2 3.6
2018-Jun-07 23:00N 33°44' W 118°12'2 3.6
2018-Jun-07 22:30N 33°46' W 118°12'2 3.7
2018-Jun-07 22:00N 33°44' W 118°11'4 8.8
2018-Jun-07 21:30N 33°44' W 118°16'1 0.4
2018-Jun-07 19:21N 33°43' W 118°16'4 7.7
2018-Jun-07 18:52N 33°46' W 118°13'2 4.9
2018-Jun-07 18:26N 33°44' W 118°13'2 3.8
2018-Jun-07 17:50N 33°43' W 118°16'1 4.1
2018-Jun-07 17:30N 33°44' W 118°17'0 0.1
2018-Jun-07 12:40N 33°44' W 118°16'1 4.0
2018-Jun-07 12:30N 33°43' W 118°16'714.3
2018-Jun-07 12:00N 33°41' W 118°08'612.1
2018-Jun-07 11:30N 33°43' W 118°15'2 0.4
2018-Jun-07 06:55N 33°44' W 118°16'3 6.4
2018-Jun-07 06:30N 33°43' W 118°13'4 2.3
2018-Jun-07 04:44N 33°41' W 118°09'314.9
2018-Jun-07 04:30N 33°43' W 118°12'4 6.9
2018-Jun-07 03:59N 33°44' W 118°16'0 0.0
2018-Jun-07 03:30N 33°44' W 118°16'0 0.0
2018-Jun-07 03:01N 33°44' W 118°16'7 4.4
2018-Jun-07 01:22N 33°41' W 118°08'0 0.3
2018-Jun-07 01:00N 33°41' W 118°08'0 0.1
2018-Jun-07 00:30N 33°41' W 118°08'7 0.2
2018-Jun-05 17:02N 33°44' W 118°16'0 0.2
2018-Jun-05 17:01N 33°44' W 118°16'3 5.7
2018-Jun-05 16:31N 33°44' W 118°13'0 0.4
2018-Jun-05 16:01N 33°44' W 118°13'0 0.1
2018-Jun-05 15:30N 33°44' W 118°13'3 5.5
2018-Jun-05 15:00N 33°44' W 118°16'0 0.1
2018-Jun-05 14:30N 33°44' W 118°16'  
Track history (hours):
 
Tides and Currents Weather Stations Pressure Air Temp Water Temp Dewpoint Dewpoint Depression Visibility Wind Speed Wind Dir Waves Ship Positions

Raven

Owner: So. Cal. Ship Services, Long Beach, CA. More information available from US FCC via Universal Licensing System and Coast Guard Vessel Documentation Center.

Last reported at 2018-Jun-14 05:44 UTC. Time now 2018-Jun-20 22:33 UTC.
Position N 33°44' W 118°16'.

Length 23 m; draft 2 m.

Type: . MMSI: 367683830.

Date/timePositionNaut miles runAvg speedWind from/ knotsBaromVisibWave heightAir tempDewpointWater temp
2018-Jun-14 05:44N 33°44' W 118°16'1 5.8
2018-Jun-14 05:30N 33°43' W 118°16'4 8.4
2018-Jun-14 05:01N 33°46' W 118°12'2 3.6
2018-Jun-14 04:30N 33°44' W 118°13'3 5.3
2018-Jun-14 03:55N 33°44' W 118°16'1 1.1
2018-Jun-14 03:29N 33°44' W 118°16'3 5.2
2018-Jun-14 02:53N 33°44' W 118°13'2 6.0
2018-Jun-14 02:30N 33°46' W 118°12'0 0.0
2018-Jun-14 02:00N 33°46' W 118°12'2 3.6
2018-Jun-14 01:30N 33°44' W 118°12'2 3.1
2018-Jun-14 00:55N 33°46' W 118°12'0 0.0
2018-Jun-14 00:30N 33°46' W 118°12'0 0.0
2018-Jun-13 23:59N 33°46' W 118°12'1 1.9
2018-Jun-13 23:30N 33°45' W 118°11'2 3.3
2018-Jun-13 23:00N 33°44' W 118°12'2 3.6
2018-Jun-13 22:30N 33°46' W 118°12'2 3.8
2018-Jun-13 22:01N 33°44' W 118°12'3 6.8
2018-Jun-13 21:30N 33°44' W 118°16'4 8.2
2018-Jun-13 20:58N 33°45' W 118°11'2 3.5
2018-Jun-13 20:31N 33°44' W 118°12'3 6.4
2018-Jun-13 20:00N 33°44' W 118°16'1 2.4
2018-Jun-13 19:30N 33°43' W 118°16'3 5.1
2018-Jun-13 19:01N 33°44' W 118°13'2 3.9
2018-Jun-13 18:30N 33°46' W 118°12'2 3.9
2018-Jun-13 18:00N 33°44' W 118°11'2 3.8
2018-Jun-13 17:30N 33°46' W 118°12'0 0.0
2018-Jun-13 17:00N 33°46' W 118°12'0 0.0
2018-Jun-13 16:30N 33°46' W 118°12'2 4.0
2018-Jun-13 16:00N 33°44' W 118°12'2 3.5
2018-Jun-13 15:30N 33°45' W 118°11'1 1.8
2018-Jun-13 15:00N 33°46' W 118°12'0 0.0
2018-Jun-13 14:30N 33°46' W 118°12'1 1.6
2018-Jun-13 14:00N 33°45' W 118°11'5 9.3
2018-Jun-13 13:30N 33°43' W 118°16'1 0.1
2018-Jun-13 06:25N 33°44' W 118°16'3 8.5
2018-Jun-13 06:01N 33°43' W 118°12'5 9.3
2018-Jun-13 05:30N 33°40' W 118°08'612.3
2018-Jun-13 05:00N 33°46' W 118°12'0 0.0
2018-Jun-13 04:30N 33°46' W 118°12'0 0.0
2018-Jun-13 04:00N 33°46' W 118°12'3 4.8
2018-Jun-13 03:29N 33°43' W 118°11'4 7.7
2018-Jun-13 03:00N 33°40' W 118°08'612.2
2018-Jun-13 02:30N 33°46' W 118°12'0 0.1
2018-Jun-13 01:59N 33°46' W 118°12'0 0.1
2018-Jun-13 01:30N 33°46' W 118°12'0 0.0
2018-Jun-13 01:00N 33°46' W 118°12'4 8.4
2018-Jun-13 00:30N 33°43' W 118°15'3 5.6
2018-Jun-13 00:00N 33°44' W 118°12'1 2.1
2018-Jun-12 23:30N 33°43' W 118°11'4 7.6
2018-Jun-12 23:01N 33°40' W 118°08'611.9
2018-Jun-12 22:30N 33°46' W 118°12'4 4.4
2018-Jun-12 21:30N 33°43' W 118°16'1 0.9
2018-Jun-12 20:36N 33°44' W 118°16'1 6.2
2018-Jun-12 20:22N 33°43' W 118°16'411.4
2018-Jun-12 20:00N 33°44' W 118°11'2 2.9
2018-Jun-12 19:23N 33°46' W 118°12'0 0.0
2018-Jun-12 19:00N 33°46' W 118°12'0 0.0
2018-Jun-12 18:30N 33°46' W 118°12'0 0.0
2018-Jun-12 18:00N 33°46' W 118°12'0 0.0
2018-Jun-12 17:30N 33°46' W 118°12'0 0.0
2018-Jun-12 17:00N 33°46' W 118°12'0 0.0
2018-Jun-12 16:30N 33°46' W 118°12'0 0.0
2018-Jun-12 16:00N 33°46' W 118°12'0 0.0
2018-Jun-12 15:29N 33°46' W 118°12'0 0.0
2018-Jun-12 15:00N 33°46' W 118°12'0 0.0
2018-Jun-12 14:29N 33°46' W 118°12'0 0.1
2018-Jun-12 14:00N 33°46' W 118°12'4 8.7
2018-Jun-12 13:31N 33°43' W 118°16'1 0.2
2018-Jun-12 06:55N 33°44' W 118°16'2 5.6
2018-Jun-12 06:30N 33°43' W 118°14'3 5.9
2018-Jun-12 06:00N 33°45' W 118°11'510.2
2018-Jun-12 05:30N 33°40' W 118°08'612.8
2018-Jun-12 05:01N 33°46' W 118°12'0 0.0
2018-Jun-12 04:31N 33°46' W 118°12'0 0.0
2018-Jun-12 04:00N 33°46' W 118°12'1 2.6
2018-Jun-12 03:30N 33°45' W 118°11'510.7
2018-Jun-12 03:00N 33°40' W 118°08'713.2
2018-Jun-12 02:30N 33°46' W 118°12'0 0.0
2018-Jun-12 02:00N 33°46' W 118°12'0 0.0
2018-Jun-12 01:30N 33°46' W 118°12'0 0.0
2018-Jun-12 01:00N 33°46' W 118°12'0 0.0
2018-Jun-12 00:30N 33°46' W 118°12'2 4.0
2018-Jun-12 00:00N 33°44' W 118°11'3 5.7
2018-Jun-11 23:30N 33°41' W 118°09'1 2.3
2018-Jun-11 23:00N 33°41' W 118°08'612.3
2018-Jun-11 22:30N 33°46' W 118°12'3 6.2
2018-Jun-11 22:00N 33°43' W 118°14'2 4.6
2018-Jun-11 21:30N 33°44' W 118°16'0 0.0
2018-Jun-11 20:49N 33°44' W 118°16'0 1.3
2018-Jun-11 20:31N 33°44' W 118°16'3 5.7
2018-Jun-11 20:00N 33°43' W 118°13'2 4.9
2018-Jun-11 19:30N 33°45' W 118°11'2 3.3
2018-Jun-11 19:00N 33°44' W 118°12'2 3.6
2018-Jun-11 18:31N 33°46' W 118°12'0 0.0
2018-Jun-11 18:01N 33°46' W 118°12'2 3.6
2018-Jun-11 17:31N 33°44' W 118°12'2 3.6
2018-Jun-11 17:00N 33°46' W 118°12'0 0.0
2018-Jun-11 16:30N 33°46' W 118°12'0 0.0
2018-Jun-11 16:00N 33°46' W 118°12'0 0.2
2018-Jun-11 15:30N 33°46' W 118°12'2 3.7
2018-Jun-11 15:00N 33°44' W 118°12'2 3.7
2018-Jun-11 14:30N 33°46' W 118°12'0 0.0
2018-Jun-11 14:00N 33°46' W 118°12'3 5.3
2018-Jun-11 13:30N 33°43' W 118°13'3 0.4
2018-Jun-11 06:32N 33°44' W 118°16'0 0.5
2018-Jun-11 06:30N 33°44' W 118°16'5 8.9
2018-Jun-11 05:59N 33°45' W 118°11'1 2.2
2018-Jun-11 05:31N 33°44' W 118°12'2 3.5
2018-Jun-11 05:00N 33°46' W 118°12'0 0.0
2018-Jun-11 04:31N 33°46' W 118°12'0 0.0
2018-Jun-11 04:00N 33°46' W 118°12'0 0.0
2018-Jun-11 03:30N 33°46' W 118°12'1 2.6
2018-Jun-11 03:01N 33°45' W 118°11'1 0.4
2018-Jun-11 00:06N 33°46' W 118°12'0 0.1
2018-Jun-10 21:46N 33°45' W 118°12'4 6.4
2018-Jun-10 21:06N 33°44' W 118°16'0 0.1
2018-Jun-10 21:00N 33°44' W 118°16'1 2.0
2018-Jun-10 20:30N 33°43' W 118°16'4 8.8
2018-Jun-10 20:00N 33°46' W 118°12'2 3.5
2018-Jun-10 19:30N 33°44' W 118°12'0 0.1
2018-Jun-10 19:01N 33°44' W 118°12'2 3.5
2018-Jun-10 18:31N 33°46' W 118°12'0 0.0
2018-Jun-10 18:00N 33°46' W 118°12'2 4.3
2018-Jun-10 17:30N 33°44' W 118°12'4 7.1
2018-Jun-10 17:00N 33°44' W 118°16'0 0.0
2018-Jun-10 16:30N 33°44' W 118°16'5 9.4
2018-Jun-10 16:00N 33°44' W 118°11'1 2.0
2018-Jun-10 15:31N 33°44' W 118°12'1 1.1
2018-Jun-10 15:01N 33°44' W 118°12'2 1.7
2018-Jun-10 14:00N 33°45' W 118°12'4 9.0
2018-Jun-10 13:30N 33°43' W 118°16'1 0.1
2018-Jun-10 05:56N 33°44' W 118°16'4 1.7
2018-Jun-10 03:36N 33°46' W 118°12'0 0.0
2018-Jun-10 03:30N 33°46' W 118°12'2 0.9
2018-Jun-10 01:25N 33°44' W 118°12'0 0.1
2018-Jun-09 18:01N 33°44' W 118°11'011.0
2018-Jun-09 18:00N 33°44' W 118°12'0 0.5
2018-Jun-09 17:28N 33°44' W 118°12'1 1.8
2018-Jun-09 17:00N 33°44' W 118°11'2 3.6
2018-Jun-09 16:30N 33°46' W 118°12'4 7.4
2018-Jun-09 16:00N 33°43' W 118°14'2 3.9
2018-Jun-09 15:30N 33°44' W 118°16'0 0.0
2018-Jun-08 23:25N 33°44' W 118°16'3 7.9
2018-Jun-08 23:00N 33°44' W 118°12'2 4.1
2018-Jun-08 22:30N 33°46' W 118°12'0 0.1
2018-Jun-08 22:00N 33°46' W 118°12'0 0.0
2018-Jun-08 21:30N 33°46' W 118°12'0 0.0
2018-Jun-08 21:00N 33°46' W 118°12'0 0.0
2018-Jun-08 20:30N 33°46' W 118°12'0 0.0
2018-Jun-08 19:59N 33°46' W 118°12'2 3.6
2018-Jun-08 19:30N 33°44' W 118°11'1 2.5
2018-Jun-08 19:01N 33°45' W 118°11'1 1.0
2018-Jun-08 18:28N 33°46' W 118°12'0 0.0
2018-Jun-08 17:59N 33°46' W 118°12'0 0.0
2018-Jun-08 17:29N 33°46' W 118°12'0 0.2
2018-Jun-08 17:00N 33°46' W 118°12'4 8.6
2018-Jun-08 16:30N 33°43' W 118°15'2 3.0
2018-Jun-08 16:01N 33°44' W 118°16'3 6.5
2018-Jun-08 15:30N 33°44' W 118°12'0 0.0
2018-Jun-08 15:00N 33°44' W 118°12'2 3.9
2018-Jun-08 14:30N 33°46' W 118°12'4 8.7
2018-Jun-08 14:00N 33°43' W 118°16'1 2.3
2018-Jun-08 13:30N 33°44' W 118°16'0 0.0
2018-Jun-08 05:50N 33°44' W 118°16'3 8.3
2018-Jun-08 05:30N 33°43' W 118°13'3 5.3
2018-Jun-08 05:00N 33°46' W 118°12'0 0.3
2018-Jun-08 04:30N 33°46' W 118°12'0 0.0
2018-Jun-08 03:59N 33°46' W 118°12'0 0.0
2018-Jun-08 03:30N 33°46' W 118°12'0 0.0
2018-Jun-08 03:00N 33°46' W 118°12'0 0.0
2018-Jun-08 02:30N 33°46' W 118°12'0 0.0
2018-Jun-08 02:00N 33°46' W 118°12'2 3.8
2018-Jun-08 01:30N 33°44' W 118°12'2 3.6
2018-Jun-08 01:01N 33°46' W 118°12'0 0.4
2018-Jun-08 00:31N 33°46' W 118°12'0 0.0
2018-Jun-08 00:01N 33°46' W 118°12'0 0.0
2018-Jun-07 23:30N 33°46' W 118°12'2 3.6
2018-Jun-07 23:00N 33°44' W 118°12'2 3.6
2018-Jun-07 22:30N 33°46' W 118°12'2 3.7
2018-Jun-07 22:00N 33°44' W 118°11'4 8.8
2018-Jun-07 21:30N 33°44' W 118°16'1 0.4
2018-Jun-07 19:21N 33°43' W 118°16'4 7.7
2018-Jun-07 18:52N 33°46' W 118°13'2 4.9
2018-Jun-07 18:26N 33°44' W 118°13'2 3.8
2018-Jun-07 17:50N 33°43' W 118°16'1 4.1
2018-Jun-07 17:30N 33°44' W 118°17'0 0.1
2018-Jun-07 12:40N 33°44' W 118°16'1 4.0
2018-Jun-07 12:30N 33°43' W 118°16'714.3
2018-Jun-07 12:00N 33°41' W 118°08'612.1
2018-Jun-07 11:30N 33°43' W 118°15'2 0.4
2018-Jun-07 06:55N 33°44' W 118°16'3 6.4
2018-Jun-07 06:30N 33°43' W 118°13'4 2.3
2018-Jun-07 04:44N 33°41' W 118°09'314.9
2018-Jun-07 04:30N 33°43' W 118°12'4 6.9
2018-Jun-07 03:59N 33°44' W 118°16'0 0.0
2018-Jun-07 03:30N 33°44' W 118°16'0 0.0
2018-Jun-07 03:01N 33°44' W 118°16'7 4.4
2018-Jun-07 01:22N 33°41' W 118°08'0 0.3
2018-Jun-07 01:00N 33°41' W 118°08'0 0.1
2018-Jun-07 00:30N 33°41' W 118°08'7 0.2
2018-Jun-05 17:02N 33°44' W 118°16'0 0.2
2018-Jun-05 17:01N 33°44' W 118°16'3 5.7
2018-Jun-05 16:31N 33°44' W 118°13'0 0.4
2018-Jun-05 16:01N 33°44' W 118°13'0 0.1
2018-Jun-05 15:30N 33°44' W 118°13'3 5.5
2018-Jun-05 15:00N 33°44' W 118°16'0 0.1
2018-Jun-05 14:30N 33°44' W 118°16'  

Dump ship's entire track history